Latest Weather Observations for Lake Macquarie - Cooranbong

IDN60801

Issued at 10:42 pm EDT Saturday 25 January 2020 (issued every 10 minutes, with the page automatically refreshed every 10 minutes)

About weather observations | Map of weather stations | Latest weather observations for NSW | Other Formats
Station Details ID: 061412 Name: LAKE MACQUARIE AWS Lat: -33.09 Lon: 151.46 Height: 6.0 m
Data from the previous 72 hours. | See also: Recent months at Lake Macquarie - Cooranbong
Date/Time
EDT
Temp
°C
App
Temp
°C
Dew
Point
°C
Rel
Hum
%
Delta-T
°C
Wind Press
QNH
hPa
Press
MSL
hPa
Rain since
9am
mm
Dir  Spd
km/h
Gust
km/h
Spd
kts
Gust
kts
25/10:30pm 24.3 29.4 22.6 90 1.1 CALM 0 4 0 2 1012.2 1012.2 0.8
25/10:00pm 24.5 29.4 22.4 88 1.4 CALM 0 0 0 0 1012.4 1012.4 0.8
25/09:30pm 24.9 30.0 22.6 87 1.5 CALM 0 0 0 0 1012.5 1012.5 0.8
25/09:00pm 25.2 29.9 22.7 86 1.7 SE 2 4 1 2 1012.3 1012.3 0.8
25/08:30pm 25.3 30.5 22.8 86 1.7 CALM 0 0 0 0 1012.2 1012.2 0.8
25/08:00pm 25.6 30.7 22.7 84 2.0 CALM 0 0 0 0 1012.1 1012.1 0.8
25/07:30pm 25.8 30.5 22.7 83 2.1 E 2 4 1 2 1011.7 1011.7 0.8
25/07:00pm 25.9 29.8 22.6 82 2.2 E 6 9 3 5 1011.4 1011.4 0.8
25/06:30pm 26.5 30.3 22.8 80 2.5 E 7 19 4 10 1011.4 1011.4 0.8
25/06:00pm 26.7 29.5 22.3 77 3.0 E 11 17 6 9 1011.3 1011.3 0.8
25/05:30pm 27.6 31.3 22.5 74 3.4 E 7 13 4 7 1011.2 1011.2 0.8
25/05:00pm 27.9 31.6 22.6 73 3.6 SE 7 11 4 6 1011.3 1011.3 0.8
25/04:30pm 27.6 31.7 23.2 77 3.0 ESE 7 13 4 7 1011.6 1011.6 0.8
25/04:00pm 26.9 30.6 23.2 80 2.5 ESE 9 15 5 8 1011.9 1011.9 0.8
25/03:30pm 27.0 30.9 23.0 79 2.7 ESE 7 11 4 6 1012.1 1012.1 0.8
25/03:00pm 27.1 30.7 23.1 79 2.7 E 9 17 5 9 1012.5 1012.5 0.8
25/02:30pm 26.4 30.6 23.1 82 2.2 E 6 13 3 7 1012.9 1012.9 0.8
25/02:00pm 26.1 30.6 23.0 83 2.1 E 4 9 2 5 1013.3 1013.3 0.8
25/01:30pm 25.4 30.3 23.1 87 1.6 SE 2 4 1 2 1013.7 1013.7 0.8
25/01:00pm 25.0 29.3 22.7 87 1.5 SE 4 6 2 3 1014.1 1014.1 0.8
25/12:30pm 24.4 28.8 22.8 91 1.1 S 4 7 2 4 1014.5 1014.5 0.8
25/12:00pm 24.0 28.3 22.6 92 0.9 SE 4 6 2 3 1014.8 1014.8 0.8
25/11:30am 24.3 29.1 22.9 92 0.9 S 2 4 1 2 1014.9 1014.9 0.6
25/11:00am 24.1 28.8 22.7 92 0.9 SW 2 4 1 2 1015.0 1015.0 0.4
25/10:30am 23.6 27.9 22.0 91 1.1 WSW 2 6 1 3 1015.1 1015.1 0.4
25/10:00am 23.6 27.6 22.0 91 1.1 SW 4 4 2 2 1015.0 1015.0 0.4
25/09:30am 23.4 27.6 21.8 91 1.1 SSW 2 4 1 2 1015.0 1015.0 0.2
25/09:00am 23.5 28.1 21.8 90 1.1 CALM 0 0 0 0 1015.0 1015.0 0.0
25/08:30am 23.4 27.6 21.7 90 1.1 SE 2 6 1 3 1014.9 1014.9 0.0
25/08:00am 23.3 27.7 21.4 89 1.2 CALM 0 0 0 0 1014.5 1014.5 0.0
25/07:30am 23.1 27.1 21.4 90 1.1 SE 2 4 1 2 1014.1 1014.1 0.0
25/07:00am 23.3 25.7 20.8 86 1.6 ESE 9 13 5 7 1014.0 1014.0 0.0
25/06:30am 24.3 27.5 20.6 80 2.4 SE 4 11 2 6 1013.7 1013.7 0.0
25/06:00am 24.3 27.3 20.8 81 2.3 SE 6 9 3 5 1013.4 1013.4 0.0
25/05:30am 24.3 27.7 21.0 82 2.2 SE 4 9 2 5 1013.1 1013.1 0.0
25/05:00am 24.3 28.1 21.0 82 2.2 SSE 2 4 1 2 1012.8 1012.8 0.0
25/04:30am 24.3 28.2 21.2 83 2.0 SSE 2 4 1 2 1012.7 1012.7 0.0
25/04:00am 24.2 28.5 21.1 83 2.0 CALM 0 0 0 0 1012.5 1012.5 0.0
25/03:30am 24.1 28.3 21.0 83 2.0 CALM 0 0 0 0 1012.6 1012.6 0.0
25/03:00am 24.1 28.3 21.0 83 2.0 CALM 0 0 0 0 1012.5 1012.5 0.0
25/02:30am 24.2 27.9 20.7 81 2.3 SSW 2 4 1 2 1012.6 1012.6 0.0
25/02:00am 24.7 28.8 20.8 79 2.6 CALM 0 4 0 2 1012.9 1012.9 0.0
25/01:30am 24.8 28.2 20.9 79 2.6 ESE 4 7 2 4 1013.3 1013.3 0.0
25/01:00am 24.8 28.1 20.7 78 2.7 SE 4 9 2 5 1013.6 1013.6 0.0
25/12:30am 24.8 27.7 20.7 78 2.7 ESE 6 11 3 6 1013.6 1013.6 0.0
25/12:00am 24.9 28.0 21.0 79 2.6 SE 6 11 3 6 1013.7 1013.7 0.0
 
Date/Time
EDT
Temp
°C
App
Temp
°C
Dew
Point
°C
Rel
Hum
%
Delta-T
°C
Wind Press
QNH
hPa
Press
MSL
hPa
Rain since
9am
mm
Dir  Spd
km/h
Gust
km/h
Spd
kts
Gust
kts
24/11:30pm 24.8 28.9 20.7 78 2.7 CALM 0 4 0 2 1013.7 1013.7 0.0
24/11:00pm 24.8 28.9 20.7 78 2.7 CALM 0 2 0 1 1013.4 1013.4 0.0
24/10:30pm 24.7 28.4 20.8 79 2.6 ESE 2 7 1 4 1013.3 1013.3 0.0
24/10:00pm 24.8 28.1 20.7 78 2.7 E 4 7 2 4 1013.0 1013.0 0.0
24/09:30pm 25.0 27.7 20.7 77 2.8 ESE 7 11 4 6 1012.7 1012.7 0.0
24/09:00pm 25.3 28.2 21.0 77 2.8 E 7 13 4 7 1012.3 1012.3 0.0
24/08:30pm 25.4 28.5 21.1 77 2.8 E 6 13 3 7 1011.7 1011.7 0.0
24/08:00pm 25.5 27.6 21.0 76 3.0 ESE 11 19 6 10 1011.3 1011.3 0.0
24/07:30pm 25.7 28.0 20.7 74 3.3 ENE 9 17 5 9 1010.9 1010.9 0.0
24/07:00pm 25.9 28.7 20.9 74 3.3 ENE 7 11 4 6 1010.3 1010.3 0.0
24/06:30pm 25.8 28.2 20.8 74 3.3 ENE 9 17 5 9 1009.2 1009.1 0.0
24/06:00pm 26.2 27.7 20.5 71 3.7 ESE 13 20 7 11 1009.4 1009.4 0.0
24/05:30pm 26.7 28.9 20.3 68 4.2 E 9 20 5 11 1009.5 1009.5 0.0
24/05:00pm 27.3 29.5 20.4 66 4.5 SE 9 17 5 9 1008.8 1008.7 0.0
24/04:30pm 27.2 28.6 19.5 62 5.0 ESE 11 17 6 9 1009.2 1009.1 0.0
24/04:00pm 27.5 28.3 18.2 57 5.9 ESE 11 19 6 10 1009.4 1009.4 0.0
24/03:30pm 27.9 29.1 18.3 56 6.1 SE 9 20 5 11 1009.6 1009.6 0.0
24/03:00pm 27.5 28.3 17.4 54 6.4 S 9 15 5 8 1010.1 1010.1 0.0
24/02:30pm 27.2 27.2 16.2 51 6.8 S 11 20 6 11 1010.0 1010.0 0.0
24/02:00pm 27.0 26.6 16.3 52 6.6 S 13 22 7 12 1010.3 1010.3 0.0
24/01:30pm 27.1 27.5 17.3 55 6.1 SSE 11 26 6 14 1010.3 1010.3 0.0
24/01:00pm 27.6 28.0 18.9 59 5.6 SSE 15 35 8 19 1010.4 1010.4 0.0
24/12:30pm 27.4 28.5 19.7 63 5.0 SE 13 22 7 12 1010.4 1010.4 0.0
24/12:00pm 26.6 27.2 18.5 61 5.2 SE 13 26 7 14 1010.5 1010.5 0.0
24/11:30am 27.1 26.9 16.7 53 6.5 SE 13 24 7 13 1010.5 1010.5 0.0
24/11:00am 27.6 27.9 16.9 52 6.7 SE 11 19 6 10 1010.3 1010.3 0.0
24/10:30am 28.2 30.1 18.9 57 6.0 S 7 13 4 7 1009.9 1009.9 0.0
24/10:00am 27.4 28.7 19.2 61 5.3 SSE 11 20 6 11 1009.6 1009.6 0.0
24/09:30am 27.6 29.1 19.7 62 5.1 SSE 11 19 6 10 1009.5 1009.5 0.0
24/09:00am 27.8 29.3 19.8 61 5.2 SE 11 20 6 11 1009.0 1008.9 0.0
24/08:30am 27.5 29.9 20.8 67 4.4 SSW 9 17 5 9 1008.7 1008.6 0.0
24/08:00am 27.3 31.2 21.8 72 3.7 S 4 11 2 6 1007.9 1007.8 0.0
24/07:30am 27.4 30.0 20.5 66 4.5 SW 7 15 4 8 1007.8 1007.7 0.0
24/07:00am 27.1 29.2 19.4 62 5.0 SSW 7 17 4 9 1007.5 1007.4 0.0
24/06:30am 27.8 30.3 19.8 61 5.2 S 6 11 3 6 1007.0 1006.9 0.0
24/06:00am 28.6 31.1 19.8 59 5.8 SSE 6 9 3 5 1006.1 1006.0 0.0
24/05:30am 30.2 33.3 19.6 53 6.9 SE 2 6 1 3 1005.3 1005.2 0.0
24/05:00am 30.7 32.8 19.4 51 7.4 WNW 7 20 4 11 1004.2 1004.1 0.0
24/04:30am 30.1 32.8 19.5 53 6.9 NNW 4 9 2 5 1003.5 1003.4 0.0
24/04:00am 30.4 32.7 19.4 51 7.2 NW 6 11 3 6 1003.4 1003.3 0.0
24/03:30am 30.4 32.7 19.4 51 7.2 WNW 6 11 3 6 1003.2 1003.1 0.0
24/03:00am 30.3 32.0 19.3 51 7.2 NW 9 20 5 11 1002.5 1002.4 0.0
24/02:30am 30.9 31.1 19.3 50 7.6 NW 17 35 9 19 1002.3 1002.2 0.0
24/02:00am 30.9 31.8 19.3 50 7.6 NW 13 28 7 15 1002.7 1002.6 0.0
24/01:30am 30.9 31.8 19.3 50 7.6 NW 13 24 7 13 1002.8 1002.7 0.0
24/01:00am 30.7 30.9 19.4 51 7.4 NW 17 30 9 16 1002.9 1002.8 0.0
24/12:30am 30.2 31.4 19.9 54 6.8 NW 13 26 7 14 1003.4 1003.3 0.0
24/12:00am 29.7 31.1 20.3 57 6.2 NW 13 28 7 15 1003.7 1003.6 0.0
 
Date/Time
EDT
Temp
°C
App
Temp
°C
Dew
Point
°C
Rel
Hum
%
Delta-T
°C
Wind Press
QNH
hPa
Press
MSL
hPa
Rain since
9am
mm
Dir  Spd
km/h
Gust
km/h
Spd
kts
Gust
kts
23/11:30pm 28.9 31.6 20.6 61 5.5 NW 7 17 4 9 1004.1 1004.0 0.0
23/11:00pm 28.3 30.6 21.3 65 4.7 NNW 11 20 6 11 1004.6 1004.5 0.0
23/10:30pm 27.5 28.8 20.8 67 4.4 NNW 15 37 8 20 1004.6 1004.5 0.0
23/10:29pm 27.7 28.6 20.8 66 4.6 NNW 17 41 9 22 1004.6 1004.5 0.0
23/10:08pm 32.8 30.9 19.3 45 8.9 NW 28 65 15 35 1004.1 1004.0 0.0
23/10:00pm 35.7 35.2 17.9 35 11.6 NNW 17 35 9 19 1002.6 1002.5 0.0
23/09:30pm 35.6 35.6 17.3 33 11.8 N 13 22 7 12 1001.2 1001.1 0.0
23/09:00pm 36.6 36.6 16.2 29 13.0 N 11 22 6 12 1000.4 1000.3 0.0
23/08:30pm 37.3 36.9 16.3 29 13.4 NNW 13 28 7 15 1000.4 1000.3 0.0
23/08:00pm 37.9 36.3 15.1 26 14.4 N 17 26 9 14 999.6 999.5 0.0
23/07:30pm 38.0 37.0 14.5 24 14.7 NNW 13 26 7 14 999.2 999.1 0.0
23/07:00pm 39.0 37.7 14.7 23 15.3 N 15 30 8 16 998.6 998.5 0.0
23/06:30pm 39.9 38.2 14.8 22 15.8 N 17 30 9 16 998.2 998.1 0.0
23/06:00pm 40.3 37.6 13.0 20 16.9 N 19 32 10 17 998.3 998.2 0.0
23/05:30pm 41.0 38.1 11.1 17 18.0 NNW 17 24 9 13 998.1 998.0 0.0
23/05:00pm 41.5 38.4 11.5 17 18.3 N 19 32 10 17 998.1 998.0 0.0
23/04:30pm 41.2 37.1 11.3 17 18.1 N 24 41 13 22 998.3 998.2 0.0
23/04:00pm 41.8 39.1 11.7 17 18.4 NW 17 35 9 19 999.0 998.9 0.0
23/03:30pm 41.6 39.0 13.3 19 17.6 N 19 41 10 22 999.5 999.4 0.0
23/03:00pm 40.7 37.4 11.7 18 17.7 NNW 20 39 11 21 999.9 999.8 0.0
23/02:30pm 41.3 38.2 12.2 18 17.8 NNW 20 41 11 22 1000.4 1000.3 0.0
23/02:00pm 40.8 38.1 13.4 20 17.1 NNW 20 44 11 24 1000.9 1000.8 0.0
23/01:30pm 40.7 38.1 13.3 20 17.0 NNW 19 39 10 21 1001.5 1001.4 0.0
23/01:00pm 39.8 37.3 14.1 22 16.1 NNW 20 48 11 26 1001.9 1001.8 0.0
23/12:30pm 39.2 35.8 13.6 22 15.9 NNW 24 39 13 21 1002.3 1002.2 0.0
23/12:00pm 38.9 37.7 17.1 28 14.2 N 19 28 10 15 1002.8 1002.7 0.0
23/11:30am 37.8 37.4 17.2 29 13.3 NNW 15 33 8 18 1003.1 1003.0 0.0
23/11:00am 36.4 35.2 17.0 31 12.5 N 19 37 10 20 1003.4 1003.3 0.0
23/10:30am 35.3 33.5 17.0 33 11.7 N 22 44 12 24 1003.8 1003.7 0.0
23/10:00am 34.6 33.7 17.8 37 10.9 NNW 19 37 10 20 1004.1 1004.0 0.0
23/09:30am 33.9 33.9 18.0 39 10.3 N 15 26 8 14 1004.5 1004.4 0.0
23/09:00am 32.8 33.2 18.2 42 9.5 N 13 22 7 12 1004.8 1004.7 0.0
23/08:30am 31.6 32.7 17.9 44 8.8 N 9 20 5 11 1005.0 1004.9 0.0
23/08:00am 28.9 30.3 17.7 50 7.1 NE 7 15 4 8 1005.2 1005.1 0.0
23/07:50am 28.4 29.5 17.9 53 6.7 NE 9 15 5 8 1005.3 1005.2 0.0
23/07:30am 23.4 27.0 19.8 80 2.3 CALM 0 4 0 2 1005.2 1005.1 0.0
23/07:00am 20.9 23.9 18.5 86 1.5 CALM 0 4 0 2 1005.0 1004.9 0.0
23/06:30am 18.8 21.2 17.1 90 1.0 CALM 0 4 0 2 1004.7 1004.6 0.0
23/06:00am 17.9 20.1 16.4 91 0.9 CALM 0 0 0 0 1004.5 1004.4 0.0
23/05:30am 17.4 19.2 15.6 89 1.1 CALM 0 0 0 0 1004.6 1004.5 0.0
23/05:00am 17.4 19.2 15.6 89 1.1 CALM 0 0 0 0 1004.6 1004.5 0.0
23/04:30am 17.3 19.1 15.5 89 1.1 CALM 0 0 0 0 1004.7 1004.6 0.0
23/04:00am 17.7 19.6 15.7 88 1.2 CALM 0 0 0 0 1004.7 1004.6 0.0
23/03:30am 18.0 19.5 15.6 86 1.4 WSW 2 6 1 3 1004.5 1004.4 0.0
23/03:00am 19.0 21.3 16.8 87 1.3 CALM 0 4 0 2 1004.3 1004.2 0.0
23/02:30am 19.2 21.0 16.4 84 1.7 WNW 2 6 1 3 1004.7 1004.6 0.0
23/02:00am 19.9 22.3 16.9 83 1.8 CALM 0 0 0 0 1005.0 1004.9 0.0
23/01:30am 20.4 22.4 17.0 81 2.1 WSW 2 6 1 3 1005.7 1005.6 0.0
23/01:00am 21.4 24.0 17.6 79 2.4 CALM 0 0 0 0 1005.9 1005.8 0.0
23/12:30am 21.7 24.4 17.7 78 2.5 CALM 0 2 0 1 1006.2 1006.1 0.0
23/12:00am 21.4 24.0 17.4 78 2.5 CALM 0 6 0 3 1006.5 1006.4 0.0
 
Date/Time
EDT
Temp
°C
App
Temp
°C
Dew
Point
°C
Rel
Hum
%
Delta-T
°C
Wind Press
QNH
hPa
Press
MSL
hPa
Rain since
9am
mm
Dir  Spd
km/h
Gust
km/h
Spd
kts
Gust
kts
22/11:30pm 22.7 25.4 17.8 74 3.0 CALM 0 2 0 1 1006.8 1006.7 0.0
22/11:00pm 22.9 25.5 17.6 72 3.3 CALM 0 4 0 2 1006.9 1006.8 0.0

Other formats

Comma delimited format used in spreadsheet applications
http://www.bom.gov.au/fwo/IDN60801/IDN60801.95767.axf

JavaScript Object Notation format (JSON) in row-major order
http://www.bom.gov.au/fwo/IDN60801/IDN60801.95767.json

Data quality

Most of these data are generated automatically and are frequently updated. Quality checks on data are not normally performed. It is possible for incorrect values to appear. Refer to information at About Latest Weather Observations and please check the disclaimer before using these data.